EKEB

Details ICAO EKEB (EBJ)
Name Esbjerg
Region Denmark / Faroe Islands
Timezone Europe/Copenhagen (UTC+2.0)
Plans Departing 44
Arriving 48
Stats Elevation 97 ft / 30 m (AMSL)
Location 55.525990° 8.553721°
Runways 1
Magnetic Variation 2.378° E
Sunrise 2018-05-26 02:59:42 UTC / 2018-05-26 04:59:42 Local
Sunset 2018-05-26 19:48:49 UTC / 2018-05-26 21:48:49 Local
Advertisement - Login to hide

Runways

ID Width Length Bearing (true) Bearing (mag) Surface Threshold Offset Overrun Length
08 148 ft / 45 m 8,534 ft / 2,601 m 79.45° 77.07° Asphalt 0 ft / 0 m 0 ft / 0 m
26 148 ft / 45 m 8,534 ft / 2,601 m 259.49° 257.11° Asphalt 0 ft / 0 m 0 ft / 0 m

Approach Navaids

Runway Type Ident Frequency Range Bearing (true) Bearing (mag) Slope Elevation
08 Localiser OO 109.10 MHz 18 nm / 33 km 79.54° 77.16° - 97 ft / 30 m (AMSL)
08 Glidescope OO 109.10 MHz 10 nm / 19 km 79.47° 77.09° 3.00° 97 ft / 30 m (AMSL)
26 Localiser ES 110.30 MHz 18 nm / 33 km 259.42° 257.04° - 97 ft / 30 m (AMSL)
26 Glidescope ES 110.30 MHz 10 nm / 19 km 259.47° 257.09° 3.00° 97 ft / 30 m (AMSL)

Map

Weather


0- 5 10 15 20 25 30 35+ Temperature / ° C

Clouds and Precipitation
Forecast for 2018-05-26 12:00 UTC. Updated 5 hours ago

Ground ~20,000 ft ~40,000 ft Winds

METAR

EKEB 261550Z AUTO 10010KT 080V140 9999NDV FEW068/// 25/10 Q1024

TAF

Not found

Frequencies

Tower 120.15 MHz AFIS
Warning: Do not use this data for real-world aviation or navigation. No guarantee of current accuracy is given.